sensor_id;sensor_type;location;lat;lon;timestamp;P1;durP1;ratioP1;P2;durP2;ratioP2
48588;SDS011;34369;51.174;6.738;2022-08-03T00:02:32;15.70;;;14.30;;
48588;SDS011;34369;51.174;6.738;2022-08-03T00:05:06;16.38;;;14.88;;
48588;SDS011;34369;51.174;6.738;2022-08-03T00:07:38;16.05;;;14.55;;
48588;SDS011;34369;51.174;6.738;2022-08-03T00:10:11;16.83;;;15.23;;
48588;SDS011;34369;51.174;6.738;2022-08-03T00:12:44;15.55;;;14.05;;
48588;SDS011;34369;51.174;6.738;2022-08-03T00:15:16;16.60;;;14.95;;
48588;SDS011;34369;51.174;6.738;2022-08-03T00:17:49;16.15;;;14.75;;
48588;SDS011;34369;51.174;6.738;2022-08-03T00:20:22;29.48;;;15.55;;
48588;SDS011;34369;51.174;6.738;2022-08-03T00:22:55;16.73;;;15.05;;
48588;SDS011;34369;51.174;6.738;2022-08-03T00:25:27;16.30;;;14.80;;
48588;SDS011;34369;51.174;6.738;2022-08-03T00:28:00;16.40;;;15.00;;
48588;SDS011;34369;51.174;6.738;2022-08-03T00:30:35;16.75;;;15.10;;
48588;SDS011;34369;51.174;6.738;2022-08-03T00:33:09;16.38;;;14.98;;
48588;SDS011;34369;51.174;6.738;2022-08-03T00:35:41;16.98;;;15.30;;
48588;SDS011;34369;51.174;6.738;2022-08-03T00:38:17;17.00;;;15.50;;
48588;SDS011;34369;51.174;6.738;2022-08-03T00:40:49;16.98;;;15.48;;
48588;SDS011;34369;51.174;6.738;2022-08-03T00:43:23;16.27;;;14.82;;
48588;SDS011;34369;51.174;6.738;2022-08-03T00:45:56;16.20;;;14.70;;
48588;SDS011;34369;51.174;6.738;2022-08-03T00:48:33;15.88;;;14.57;;
48588;SDS011;34369;51.174;6.738;2022-08-03T00:53:37;16.30;;;14.80;;
48588;SDS011;34369;51.174;6.738;2022-08-03T00:56:11;17.33;;;15.73;;
48588;SDS011;34369;51.174;6.738;2022-08-03T00:58:44;17.23;;;15.63;;
48588;SDS011;34369;51.174;6.738;2022-08-03T01:01:17;16.90;;;15.50;;
48588;SDS011;34369;51.174;6.738;2022-08-03T01:03:51;16.85;;;15.35;;
48588;SDS011;34369;51.174;6.738;2022-08-03T01:06:24;16.73;;;15.25;;
48588;SDS011;34369;51.174;6.738;2022-08-03T01:09:06;17.92;;;15.30;;
48588;SDS011;34369;51.174;6.738;2022-08-03T01:11:43;17.20;;;15.60;;
48588;SDS011;34369;51.174;6.738;2022-08-03T01:14:23;17.50;;;15.90;;
48588;SDS011;34369;51.174;6.738;2022-08-03T01:17:04;17.58;;;16.08;;
48588;SDS011;34369;51.174;6.738;2022-08-03T01:19:51;16.40;;;14.90;;
48588;SDS011;34369;51.174;6.738;2022-08-03T01:22:39;17.55;;;16.00;;
48588;SDS011;34369;51.174;6.738;2022-08-03T01:25:37;16.77;;;15.18;;
48588;SDS011;34369;51.174;6.738;2022-08-03T01:28:30;16.55;;;15.15;;
48588;SDS011;34369;51.174;6.738;2022-08-03T01:31:21;16.83;;;15.23;;
48588;SDS011;34369;51.174;6.738;2022-08-03T01:33:59;17.58;;;15.88;;
48588;SDS011;34369;51.174;6.738;2022-08-03T01:36:34;17.98;;;15.70;;
48588;SDS011;34369;51.174;6.738;2022-08-03T01:39:09;17.73;;;16.00;;
48588;SDS011;34369;51.174;6.738;2022-08-03T01:41:43;16.65;;;15.05;;
48588;SDS011;34369;51.174;6.738;2022-08-03T01:44:22;18.02;;;16.40;;
48588;SDS011;34369;51.174;6.738;2022-08-03T01:46:57;17.63;;;15.60;;
48588;SDS011;34369;51.174;6.738;2022-08-03T01:49:31;18.02;;;16.23;;
48588;SDS011;34369;51.174;6.738;2022-08-03T01:52:09;17.80;;;16.00;;
48588;SDS011;34369;51.174;6.738;2022-08-03T01:54:43;17.17;;;15.40;;
48588;SDS011;34369;51.174;6.738;2022-08-03T01:57:18;17.58;;;16.08;;
48588;SDS011;34369;51.174;6.738;2022-08-03T01:59:52;17.10;;;15.70;;
48588;SDS011;34369;51.174;6.738;2022-08-03T02:02:29;17.75;;;15.98;;
48588;SDS011;34369;51.174;6.738;2022-08-03T02:05:04;17.90;;;16.10;;
48588;SDS011;34369;51.174;6.738;2022-08-03T02:07:39;17.38;;;15.70;;
48588;SDS011;34369;51.174;6.738;2022-08-03T02:10:17;17.40;;;15.90;;
48588;SDS011;34369;51.174;6.738;2022-08-03T02:12:57;16.73;;;15.10;;
48588;SDS011;34369;51.174;6.738;2022-08-03T02:15:36;17.75;;;16.25;;
48588;SDS011;34369;51.174;6.738;2022-08-03T02:18:13;17.30;;;15.80;;
48588;SDS011;34369;51.174;6.738;2022-08-03T02:20:49;17.63;;;15.65;;
48588;SDS011;34369;51.174;6.738;2022-08-03T02:23:29;17.70;;;16.00;;
48588;SDS011;34369;51.174;6.738;2022-08-03T02:26:08;18.30;;;16.67;;
48588;SDS011;34369;51.174;6.738;2022-08-03T02:29:04;19.63;;;16.40;;
48588;SDS011;34369;51.174;6.738;2022-08-03T02:31:54;18.13;;;16.52;;
48588;SDS011;34369;51.174;6.738;2022-08-03T02:34:43;17.88;;;16.15;;
48588;SDS011;34369;51.174;6.738;2022-08-03T02:37:42;17.30;;;15.60;;
48588;SDS011;34369;51.174;6.738;2022-08-03T02:40:22;16.88;;;15.38;;
48588;SDS011;34369;51.174;6.738;2022-08-03T02:43:07;16.85;;;15.40;;
48588;SDS011;34369;51.174;6.738;2022-08-03T02:45:48;17.17;;;15.63;;
48588;SDS011;34369;51.174;6.738;2022-08-03T02:48:29;17.67;;;15.85;;
48588;SDS011;34369;51.174;6.738;2022-08-03T02:51:25;17.73;;;16.08;;
48588;SDS011;34369;51.174;6.738;2022-08-03T03:00:20;18.25;;;16.65;;
48588;SDS011;34369;51.174;6.738;2022-08-03T03:02:55;18.42;;;16.65;;
48588;SDS011;34369;51.174;6.738;2022-08-03T03:05:30;17.75;;;16.15;;
48588;SDS011;34369;51.174;6.738;2022-08-03T03:08:05;17.48;;;15.98;;
48588;SDS011;34369;51.174;6.738;2022-08-03T03:10:42;18.95;;;17.08;;
48588;SDS011;34369;51.174;6.738;2022-08-03T03:13:16;18.42;;;16.65;;
48588;SDS011;34369;51.174;6.738;2022-08-03T03:16:03;18.17;;;16.67;;
48588;SDS011;34369;51.174;6.738;2022-08-03T03:18:42;18.75;;;17.08;;
48588;SDS011;34369;51.174;6.738;2022-08-03T03:21:21;17.90;;;16.30;;
48588;SDS011;34369;51.174;6.738;2022-08-03T03:23:58;18.30;;;16.70;;
48588;SDS011;34369;51.174;6.738;2022-08-03T03:26:30;18.35;;;16.55;;
48588;SDS011;34369;51.174;6.738;2022-08-03T03:29:04;18.23;;;16.45;;
48588;SDS011;34369;51.174;6.738;2022-08-03T03:31:48;17.52;;;15.98;;
48588;SDS011;34369;51.174;6.738;2022-08-03T03:34:45;18.17;;;16.35;;
48588;SDS011;34369;51.174;6.738;2022-08-03T03:37:41;18.30;;;16.70;;
48588;SDS011;34369;51.174;6.738;2022-08-03T03:40:23;17.95;;;16.35;;
48588;SDS011;34369;51.174;6.738;2022-08-03T03:42:56;18.77;;;17.08;;
48588;SDS011;34369;51.174;6.738;2022-08-03T03:45:29;18.08;;;16.25;;
48588;SDS011;34369;51.174;6.738;2022-08-03T03:48:04;19.23;;;17.40;;
48588;SDS011;34369;51.174;6.738;2022-08-03T03:50:39;18.60;;;16.90;;
48588;SDS011;34369;51.174;6.738;2022-08-03T03:53:20;18.15;;;16.45;;
48588;SDS011;34369;51.174;6.738;2022-08-03T03:55:56;18.75;;;17.05;;
48588;SDS011;34369;51.174;6.738;2022-08-03T03:58:39;18.83;;;17.20;;
48588;SDS011;34369;51.174;6.738;2022-08-03T04:01:28;18.33;;;16.73;;
48588;SDS011;34369;51.174;6.738;2022-08-03T04:04:01;18.60;;;16.80;;
48588;SDS011;34369;51.174;6.738;2022-08-03T04:06:56;18.25;;;16.55;;
48588;SDS011;34369;51.174;6.738;2022-08-03T04:09:49;18.55;;;16.85;;
48588;SDS011;34369;51.174;6.738;2022-08-03T04:13:10;18.55;;;16.85;;
48588;SDS011;34369;51.174;6.738;2022-08-03T04:15:49;17.67;;;15.98;;
48588;SDS011;34369;51.174;6.738;2022-08-03T04:18:25;17.77;;;16.03;;
48588;SDS011;34369;51.174;6.738;2022-08-03T04:21:02;17.75;;;16.25;;
48588;SDS011;34369;51.174;6.738;2022-08-03T04:23:42;18.63;;;16.73;;
48588;SDS011;34369;51.174;6.738;2022-08-03T04:26:23;18.30;;;16.63;;
48588;SDS011;34369;51.174;6.738;2022-08-03T04:29:06;19.27;;;17.33;;
48588;SDS011;34369;51.174;6.738;2022-08-03T04:31:43;18.55;;;16.75;;
48588;SDS011;34369;51.174;6.738;2022-08-03T04:34:22;19.52;;;17.35;;
48588;SDS011;34369;51.174;6.738;2022-08-03T04:37:13;19.17;;;17.45;;
48588;SDS011;34369;51.174;6.738;2022-08-03T04:40:09;17.92;;;16.30;;
48588;SDS011;34369;51.174;6.738;2022-08-03T04:42:46;18.83;;;17.02;;
48588;SDS011;34369;51.174;6.738;2022-08-03T04:45:22;19.10;;;17.05;;
48588;SDS011;34369;51.174;6.738;2022-08-03T04:47:58;18.90;;;17.20;;
48588;SDS011;34369;51.174;6.738;2022-08-03T04:51:10;17.77;;;16.15;;
48588;SDS011;34369;51.174;6.738;2022-08-03T04:53:43;18.67;;;17.08;;
48588;SDS011;34369;51.174;6.738;2022-08-03T04:56:24;19.27;;;17.48;;
48588;SDS011;34369;51.174;6.738;2022-08-03T04:58:56;19.17;;;17.30;;
48588;SDS011;34369;51.174;6.738;2022-08-03T05:01:30;19.27;;;17.58;;
48588;SDS011;34369;51.174;6.738;2022-08-03T05:04:03;18.83;;;17.08;;
48588;SDS011;34369;51.174;6.738;2022-08-03T05:06:39;18.33;;;16.70;;
48588;SDS011;34369;51.174;6.738;2022-08-03T05:09:14;18.27;;;16.70;;
48588;SDS011;34369;51.174;6.738;2022-08-03T05:11:48;18.02;;;16.42;;
48588;SDS011;34369;51.174;6.738;2022-08-03T05:14:20;18.55;;;16.77;;
48588;SDS011;34369;51.174;6.738;2022-08-03T05:16:57;18.15;;;16.55;;
48588;SDS011;34369;51.174;6.738;2022-08-03T05:22:08;18.65;;;16.95;;
48588;SDS011;34369;51.174;6.738;2022-08-03T05:24:44;18.02;;;16.40;;
48588;SDS011;34369;51.174;6.738;2022-08-03T05:27:16;18.30;;;16.50;;
48588;SDS011;34369;51.174;6.738;2022-08-03T05:29:49;18.45;;;16.85;;
48588;SDS011;34369;51.174;6.738;2022-08-03T05:32:30;18.08;;;16.48;;
48588;SDS011;34369;51.174;6.738;2022-08-03T05:35:03;17.67;;;15.98;;
48588;SDS011;34369;51.174;6.738;2022-08-03T05:37:50;18.33;;;16.73;;
48588;SDS011;34369;51.174;6.738;2022-08-03T05:40:22;19.13;;;17.23;;
48588;SDS011;34369;51.174;6.738;2022-08-03T05:43:04;17.17;;;15.40;;
48588;SDS011;34369;51.174;6.738;2022-08-03T05:45:37;17.35;;;15.85;;
48588;SDS011;34369;51.174;6.738;2022-08-03T05:48:15;16.77;;;15.18;;
48588;SDS011;34369;51.174;6.738;2022-08-03T05:50:54;17.10;;;15.50;;
48588;SDS011;34369;51.174;6.738;2022-08-03T05:53:36;17.77;;;16.10;;
48588;SDS011;34369;51.174;6.738;2022-08-03T05:56:23;17.73;;;16.02;;
48588;SDS011;34369;51.174;6.738;2022-08-03T05:58:58;17.20;;;15.65;;
48588;SDS011;34369;51.174;6.738;2022-08-03T06:01:30;17.88;;;16.35;;
48588;SDS011;34369;51.174;6.738;2022-08-03T06:04:09;17.85;;;16.00;;
48588;SDS011;34369;51.174;6.738;2022-08-03T06:06:56;16.75;;;15.15;;
48588;SDS011;34369;51.174;6.738;2022-08-03T06:09:46;17.23;;;15.70;;
48588;SDS011;34369;51.174;6.738;2022-08-03T06:12:50;17.35;;;15.75;;
48588;SDS011;34369;51.174;6.738;2022-08-03T06:15:25;17.17;;;15.52;;
48588;SDS011;34369;51.174;6.738;2022-08-03T06:17:57;16.70;;;15.15;;
48588;SDS011;34369;51.174;6.738;2022-08-03T06:20:46;17.13;;;15.48;;
48588;SDS011;34369;51.174;6.738;2022-08-03T06:23:22;17.17;;;15.48;;
48588;SDS011;34369;51.174;6.738;2022-08-03T06:25:58;16.67;;;15.02;;
48588;SDS011;34369;51.174;6.738;2022-08-03T06:28:48;16.52;;;14.88;;
48588;SDS011;34369;51.174;6.738;2022-08-03T06:31:24;15.70;;;14.30;;
48588;SDS011;34369;51.174;6.738;2022-08-03T06:33:59;16.52;;;15.05;;
48588;SDS011;34369;51.174;6.738;2022-08-03T06:36:37;16.73;;;14.98;;
48588;SDS011;34369;51.174;6.738;2022-08-03T06:39:12;15.93;;;14.48;;
48588;SDS011;34369;51.174;6.738;2022-08-03T06:42:02;16.48;;;14.38;;
48588;SDS011;34369;51.174;6.738;2022-08-03T06:44:44;16.40;;;14.80;;
48588;SDS011;34369;51.174;6.738;2022-08-03T06:47:17;15.85;;;14.45;;
48588;SDS011;34369;51.174;6.738;2022-08-03T06:49:49;15.32;;;13.82;;
48588;SDS011;34369;51.174;6.738;2022-08-03T06:52:36;15.93;;;14.48;;
48588;SDS011;34369;51.174;6.738;2022-08-03T06:55:15;16.02;;;14.43;;
48588;SDS011;34369;51.174;6.738;2022-08-03T06:57:48;16.33;;;14.82;;
48588;SDS011;34369;51.174;6.738;2022-08-03T07:00:23;16.08;;;14.57;;
48588;SDS011;34369;51.174;6.738;2022-08-03T07:03:05;15.90;;;14.35;;
48588;SDS011;34369;51.174;6.738;2022-08-03T07:05:41;15.77;;;14.27;;
48588;SDS011;34369;51.174;6.738;2022-08-03T07:08:22;17.60;;;14.60;;
48588;SDS011;34369;51.174;6.738;2022-08-03T07:10:58;15.48;;;14.07;;
48588;SDS011;34369;51.174;6.738;2022-08-03T07:13:31;17.17;;;13.80;;
48588;SDS011;34369;51.174;6.738;2022-08-03T07:16:03;15.88;;;14.48;;
48588;SDS011;34369;51.174;6.738;2022-08-03T07:18:37;15.88;;;14.27;;
48588;SDS011;34369;51.174;6.738;2022-08-03T07:21:31;15.77;;;14.20;;
48588;SDS011;34369;51.174;6.738;2022-08-03T07:24:08;14.95;;;13.55;;
48588;SDS011;34369;51.174;6.738;2022-08-03T07:26:40;14.88;;;13.48;;
48588;SDS011;34369;51.174;6.738;2022-08-03T07:29:12;14.18;;;12.85;;
48588;SDS011;34369;51.174;6.738;2022-08-03T07:31:45;17.75;;;15.85;;
48588;SDS011;34369;51.174;6.738;2022-08-03T07:34:19;15.25;;;13.65;;
48588;SDS011;34369;51.174;6.738;2022-08-03T07:36:54;14.43;;;12.93;;
48588;SDS011;34369;51.174;6.738;2022-08-03T07:39:28;16.33;;;14.50;;
48588;SDS011;34369;51.174;6.738;2022-08-03T07:42:05;15.40;;;13.90;;
48588;SDS011;34369;51.174;6.738;2022-08-03T07:44:42;15.13;;;13.57;;
48588;SDS011;34369;51.174;6.738;2022-08-03T07:47:16;14.13;;;12.73;;
48588;SDS011;34369;51.174;6.738;2022-08-03T07:49:52;14.60;;;13.10;;
48588;SDS011;34369;51.174;6.738;2022-08-03T07:52:28;14.63;;;13.20;;
48588;SDS011;34369;51.174;6.738;2022-08-03T07:55:27;19.08;;;17.17;;
48588;SDS011;34369;51.174;6.738;2022-08-03T07:58:15;17.23;;;15.18;;
48588;SDS011;34369;51.174;6.738;2022-08-03T08:00:48;13.82;;;12.40;;
48588;SDS011;34369;51.174;6.738;2022-08-03T08:03:22;13.00;;;11.70;;
48588;SDS011;34369;51.174;6.738;2022-08-03T08:05:55;12.90;;;11.55;;
48588;SDS011;34369;51.174;6.738;2022-08-03T08:08:28;14.25;;;11.05;;
48588;SDS011;34369;51.174;6.738;2022-08-03T08:11:02;11.90;;;10.52;;
48588;SDS011;34369;51.174;6.738;2022-08-03T08:13:51;15.23;;;11.45;;
48588;SDS011;34369;51.174;6.738;2022-08-03T08:16:32;13.20;;;10.80;;
48588;SDS011;34369;51.174;6.738;2022-08-03T08:19:05;12.10;;;10.60;;
48588;SDS011;34369;51.174;6.738;2022-08-03T08:21:39;11.93;;;10.32;;
48588;SDS011;34369;51.174;6.738;2022-08-03T08:24:15;12.30;;;10.32;;
48588;SDS011;34369;51.174;6.738;2022-08-03T08:27:02;15.95;;;9.90;;
48588;SDS011;34369;51.174;6.738;2022-08-03T08:29:38;14.50;;;10.40;;
48588;SDS011;34369;51.174;6.738;2022-08-03T08:32:17;12.15;;;10.32;;
48588;SDS011;34369;51.174;6.738;2022-08-03T08:35:11;11.60;;;10.30;;
48588;SDS011;34369;51.174;6.738;2022-08-03T08:37:48;12.35;;;10.73;;
48588;SDS011;34369;51.174;6.738;2022-08-03T08:40:26;17.52;;;10.50;;
48588;SDS011;34369;51.174;6.738;2022-08-03T08:43:06;12.50;;;10.77;;
48588;SDS011;34369;51.174;6.738;2022-08-03T08:45:42;11.88;;;10.25;;
48588;SDS011;34369;51.174;6.738;2022-08-03T08:48:22;12.05;;;10.13;;
48588;SDS011;34369;51.174;6.738;2022-08-03T08:54:17;17.80;;;10.82;;
48588;SDS011;34369;51.174;6.738;2022-08-03T08:56:55;14.50;;;10.63;;
48588;SDS011;34369;51.174;6.738;2022-08-03T08:59:37;13.00;;;9.88;;
48588;SDS011;34369;51.174;6.738;2022-08-03T09:02:19;13.30;;;10.27;;
48588;SDS011;34369;51.174;6.738;2022-08-03T09:05:11;12.15;;;9.60;;
48588;SDS011;34369;51.174;6.738;2022-08-03T09:10:37;11.93;;;9.63;;
48588;SDS011;34369;51.174;6.738;2022-08-03T09:13:15;13.75;;;10.13;;
48588;SDS011;34369;51.174;6.738;2022-08-03T09:18:50;12.60;;;10.57;;
48588;SDS011;34369;51.174;6.738;2022-08-03T09:21:27;10.93;;;9.13;;
48588;SDS011;34369;51.174;6.738;2022-08-03T09:24:00;12.48;;;9.45;;
48588;SDS011;34369;51.174;6.738;2022-08-03T09:26:35;15.13;;;10.52;;
48588;SDS011;34369;51.174;6.738;2022-08-03T09:29:08;11.52;;;10.05;;
48588;SDS011;34369;51.174;6.738;2022-08-03T09:31:42;13.57;;;9.95;;
48588;SDS011;34369;51.174;6.738;2022-08-03T09:34:23;14.82;;;10.57;;
48588;SDS011;34369;51.174;6.738;2022-08-03T09:36:57;12.30;;;9.80;;
48588;SDS011;34369;51.174;6.738;2022-08-03T09:39:29;14.13;;;9.90;;
48588;SDS011;34369;51.174;6.738;2022-08-03T09:42:10;16.25;;;10.55;;
48588;SDS011;34369;51.174;6.738;2022-08-03T09:44:47;12.98;;;10.73;;
48588;SDS011;34369;51.174;6.738;2022-08-03T09:47:26;13.90;;;10.93;;
48588;SDS011;34369;51.174;6.738;2022-08-03T09:50:04;13.75;;;10.63;;
48588;SDS011;34369;51.174;6.738;2022-08-03T09:52:42;13.27;;;11.15;;
48588;SDS011;34369;51.174;6.738;2022-08-03T09:55:17;14.77;;;10.60;;
48588;SDS011;34369;51.174;6.738;2022-08-03T09:58:02;12.93;;;10.95;;
48588;SDS011;34369;51.174;6.738;2022-08-03T10:00:51;11.73;;;10.38;;
48588;SDS011;34369;51.174;6.738;2022-08-03T10:03:30;13.65;;;11.20;;
48588;SDS011;34369;51.174;6.738;2022-08-03T10:06:14;15.55;;;10.80;;
48588;SDS011;34369;51.174;6.738;2022-08-03T10:08:48;15.55;;;11.13;;
48588;SDS011;34369;51.174;6.738;2022-08-03T10:11:37;14.23;;;10.80;;
48588;SDS011;34369;51.174;6.738;2022-08-03T10:14:11;13.32;;;10.75;;
48588;SDS011;34369;51.174;6.738;2022-08-03T10:16:48;11.38;;;10.10;;
48588;SDS011;34369;51.174;6.738;2022-08-03T10:19:20;16.20;;;10.80;;
48588;SDS011;34369;51.174;6.738;2022-08-03T10:21:56;12.73;;;10.65;;
48588;SDS011;34369;51.174;6.738;2022-08-03T10:24:34;11.73;;;10.50;;
48588;SDS011;34369;51.174;6.738;2022-08-03T10:27:10;15.07;;;10.40;;
48588;SDS011;34369;51.174;6.738;2022-08-03T10:29:46;12.07;;;9.88;;
48588;SDS011;34369;51.174;6.738;2022-08-03T10:32:25;12.98;;;10.60;;
48588;SDS011;34369;51.174;6.738;2022-08-03T10:35:02;13.70;;;10.48;;
48588;SDS011;34369;51.174;6.738;2022-08-03T10:37:41;17.67;;;10.38;;
48588;SDS011;34369;51.174;6.738;2022-08-03T10:40:15;13.07;;;10.98;;
48588;SDS011;34369;51.174;6.738;2022-08-03T10:42:53;11.70;;;10.13;;
48588;SDS011;34369;51.174;6.738;2022-08-03T10:45:30;13.00;;;10.50;;
48588;SDS011;34369;51.174;6.738;2022-08-03T10:48:06;13.75;;;11.05;;
48588;SDS011;34369;51.174;6.738;2022-08-03T10:50:39;12.35;;;10.52;;
48588;SDS011;34369;51.174;6.738;2022-08-03T10:53:14;11.77;;;10.43;;
48588;SDS011;34369;51.174;6.738;2022-08-03T10:55:47;11.95;;;9.90;;
48588;SDS011;34369;51.174;6.738;2022-08-03T10:58:46;14.65;;;10.95;;
48588;SDS011;34369;51.174;6.738;2022-08-03T11:04:28;11.57;;;9.85;;
48588;SDS011;34369;51.174;6.738;2022-08-03T11:07:19;12.23;;;10.10;;
48588;SDS011;34369;51.174;6.738;2022-08-03T11:09:54;11.85;;;10.10;;
48588;SDS011;34369;51.174;6.738;2022-08-03T11:12:27;11.00;;;9.80;;
48588;SDS011;34369;51.174;6.738;2022-08-03T11:15:02;14.07;;;10.15;;
48588;SDS011;34369;51.174;6.738;2022-08-03T11:17:38;15.57;;;9.95;;
48588;SDS011;34369;51.174;6.738;2022-08-03T11:20:42;12.07;;;9.80;;
48588;SDS011;34369;51.174;6.738;2022-08-03T11:23:18;11.90;;;9.80;;
48588;SDS011;34369;51.174;6.738;2022-08-03T11:26:12;10.90;;;9.68;;
48588;SDS011;34369;51.174;6.738;2022-08-03T11:28:47;13.70;;;9.60;;
48588;SDS011;34369;51.174;6.738;2022-08-03T11:35:05;12.27;;;9.77;;
48588;SDS011;34369;51.174;6.738;2022-08-03T11:40:41;10.85;;;9.75;;
48588;SDS011;34369;51.174;6.738;2022-08-03T11:46:17;13.27;;;8.80;;
48588;SDS011;34369;51.174;6.738;2022-08-03T11:48:51;11.73;;;9.32;;
48588;SDS011;34369;51.174;6.738;2022-08-03T11:51:28;11.13;;;8.85;;
48588;SDS011;34369;51.174;6.738;2022-08-03T11:54:02;11.27;;;8.70;;
48588;SDS011;34369;51.174;6.738;2022-08-03T11:56:42;10.88;;;8.15;;
48588;SDS011;34369;51.174;6.738;2022-08-03T11:59:19;11.05;;;8.90;;
48588;SDS011;34369;51.174;6.738;2022-08-03T12:02:06;13.13;;;9.98;;
48588;SDS011;34369;51.174;6.738;2022-08-03T12:04:48;12.07;;;8.95;;
48588;SDS011;34369;51.174;6.738;2022-08-03T12:07:21;11.23;;;8.18;;
48588;SDS011;34369;51.174;6.738;2022-08-03T12:10:06;12.02;;;8.73;;
48588;SDS011;34369;51.174;6.738;2022-08-03T12:12:40;11.13;;;9.55;;
48588;SDS011;34369;51.174;6.738;2022-08-03T12:15:15;13.40;;;8.60;;
48588;SDS011;34369;51.174;6.738;2022-08-03T12:17:47;11.52;;;8.80;;
48588;SDS011;34369;51.174;6.738;2022-08-03T12:20:21;12.85;;;9.05;;
48588;SDS011;34369;51.174;6.738;2022-08-03T12:23:00;11.25;;;8.98;;
48588;SDS011;34369;51.174;6.738;2022-08-03T12:25:34;11.35;;;9.15;;
48588;SDS011;34369;51.174;6.738;2022-08-03T12:28:13;11.57;;;9.30;;
48588;SDS011;34369;51.174;6.738;2022-08-03T12:30:50;11.30;;;8.60;;
48588;SDS011;34369;51.174;6.738;2022-08-03T12:33:23;12.23;;;10.13;;
48588;SDS011;34369;51.174;6.738;2022-08-03T12:36:05;11.18;;;9.25;;
48588;SDS011;34369;51.174;6.738;2022-08-03T12:38:39;11.80;;;8.93;;
48588;SDS011;34369;51.174;6.738;2022-08-03T12:41:12;11.85;;;9.70;;
48588;SDS011;34369;51.174;6.738;2022-08-03T12:47:11;11.73;;;9.55;;
48588;SDS011;34369;51.174;6.738;2022-08-03T12:50:21;11.10;;;9.85;;
48588;SDS011;34369;51.174;6.738;2022-08-03T12:52:58;13.00;;;9.32;;
48588;SDS011;34369;51.174;6.738;2022-08-03T12:55:33;13.52;;;9.70;;
48588;SDS011;34369;51.174;6.738;2022-08-03T12:58:06;10.90;;;9.50;;
48588;SDS011;34369;51.174;6.738;2022-08-03T13:00:40;13.10;;;10.02;;
48588;SDS011;34369;51.174;6.738;2022-08-03T13:05:59;11.35;;;9.70;;
48588;SDS011;34369;51.174;6.738;2022-08-03T13:08:31;11.35;;;9.40;;
48588;SDS011;34369;51.174;6.738;2022-08-03T13:11:16;12.10;;;10.65;;
48588;SDS011;34369;51.174;6.738;2022-08-03T13:13:53;11.77;;;10.45;;
48588;SDS011;34369;51.174;6.738;2022-08-03T13:16:25;11.98;;;10.60;;
48588;SDS011;34369;51.174;6.738;2022-08-03T13:18:59;11.88;;;10.68;;
48588;SDS011;34369;51.174;6.738;2022-08-03T13:21:31;11.18;;;9.98;;
48588;SDS011;34369;51.174;6.738;2022-08-03T13:24:04;12.13;;;10.48;;
48588;SDS011;34369;51.174;6.738;2022-08-03T13:26:37;12.80;;;10.20;;
48588;SDS011;34369;51.174;6.738;2022-08-03T13:29:10;12.25;;;10.95;;
48588;SDS011;34369;51.174;6.738;2022-08-03T13:31:44;12.50;;;10.02;;
48588;SDS011;34369;51.174;6.738;2022-08-03T13:34:18;12.27;;;10.43;;
48588;SDS011;34369;51.174;6.738;2022-08-03T13:36:51;12.05;;;9.90;;
48588;SDS011;34369;51.174;6.738;2022-08-03T13:39:24;11.63;;;10.43;;
48588;SDS011;34369;51.174;6.738;2022-08-03T13:41:57;11.80;;;10.60;;
48588;SDS011;34369;51.174;6.738;2022-08-03T13:44:29;12.82;;;10.60;;
48588;SDS011;34369;51.174;6.738;2022-08-03T13:47:01;11.52;;;10.32;;
48588;SDS011;34369;51.174;6.738;2022-08-03T13:49:36;11.95;;;10.32;;
48588;SDS011;34369;51.174;6.738;2022-08-03T13:52:08;10.95;;;9.82;;
48588;SDS011;34369;51.174;6.738;2022-08-03T13:54:40;14.68;;;11.48;;
48588;SDS011;34369;51.174;6.738;2022-08-03T13:57:12;11.95;;;10.65;;
48588;SDS011;34369;51.174;6.738;2022-08-03T13:59:45;10.90;;;9.80;;
48588;SDS011;34369;51.174;6.738;2022-08-03T14:02:19;11.55;;;10.35;;
48588;SDS011;34369;51.174;6.738;2022-08-03T14:04:53;13.35;;;10.00;;
48588;SDS011;34369;51.174;6.738;2022-08-03T14:07:28;11.20;;;10.10;;
48588;SDS011;34369;51.174;6.738;2022-08-03T14:10:00;15.45;;;10.38;;
48588;SDS011;34369;51.174;6.738;2022-08-03T14:12:33;11.40;;;10.20;;
48588;SDS011;34369;51.174;6.738;2022-08-03T14:15:07;11.60;;;10.00;;
48588;SDS011;34369;51.174;6.738;2022-08-03T14:20:15;11.52;;;9.70;;
48588;SDS011;34369;51.174;6.738;2022-08-03T14:22:48;10.85;;;9.75;;
48588;SDS011;34369;51.174;6.738;2022-08-03T14:25:20;11.25;;;9.70;;
48588;SDS011;34369;51.174;6.738;2022-08-03T14:27:52;11.93;;;9.43;;
48588;SDS011;34369;51.174;6.738;2022-08-03T14:30:25;12.18;;;9.73;;
48588;SDS011;34369;51.174;6.738;2022-08-03T14:32:57;11.18;;;9.95;;
48588;SDS011;34369;51.174;6.738;2022-08-03T14:35:31;14.65;;;10.07;;
48588;SDS011;34369;51.174;6.738;2022-08-03T14:38:03;12.15;;;10.50;;
48588;SDS011;34369;51.174;6.738;2022-08-03T14:40:36;11.60;;;10.10;;
48588;SDS011;34369;51.174;6.738;2022-08-03T14:43:08;11.07;;;9.88;;
48588;SDS011;34369;51.174;6.738;2022-08-03T14:45:40;11.25;;;10.05;;
48588;SDS011;34369;51.174;6.738;2022-08-03T14:48:13;11.30;;;9.95;;
48588;SDS011;34369;51.174;6.738;2022-08-03T14:50:46;11.52;;;10.32;;
48588;SDS011;34369;51.174;6.738;2022-08-03T14:53:19;10.93;;;9.80;;
48588;SDS011;34369;51.174;6.738;2022-08-03T14:55:52;12.50;;;9.80;;
48588;SDS011;34369;51.174;6.738;2022-08-03T14:58:25;10.95;;;9.85;;
48588;SDS011;34369;51.174;6.738;2022-08-03T15:00:57;11.35;;;10.07;;
48588;SDS011;34369;51.174;6.738;2022-08-03T15:03:29;14.05;;;10.30;;
48588;SDS011;34369;51.174;6.738;2022-08-03T15:06:03;10.70;;;9.60;;
48588;SDS011;34369;51.174;6.738;2022-08-03T15:08:35;11.73;;;9.90;;
48588;SDS011;34369;51.174;6.738;2022-08-03T15:11:07;14.60;;;10.65;;
48588;SDS011;34369;51.174;6.738;2022-08-03T15:13:40;11.40;;;10.30;;
48588;SDS011;34369;51.174;6.738;2022-08-03T15:16:13;11.30;;;10.10;;
48588;SDS011;34369;51.174;6.738;2022-08-03T15:18:45;10.90;;;9.80;;
48588;SDS011;34369;51.174;6.738;2022-08-03T15:21:19;11.73;;;10.63;;
48588;SDS011;34369;51.174;6.738;2022-08-03T15:23:51;11.27;;;10.07;;
48588;SDS011;34369;51.174;6.738;2022-08-03T15:26:24;13.73;;;10.85;;
48588;SDS011;34369;51.174;6.738;2022-08-03T15:28:56;12.20;;;10.57;;
48588;SDS011;34369;51.174;6.738;2022-08-03T15:31:29;11.15;;;10.02;;
48588;SDS011;34369;51.174;6.738;2022-08-03T15:34:02;12.23;;;10.88;;
48588;SDS011;34369;51.174;6.738;2022-08-03T15:36:36;12.02;;;10.73;;
48588;SDS011;34369;51.174;6.738;2022-08-03T15:39:08;11.02;;;9.93;;
48588;SDS011;34369;51.174;6.738;2022-08-03T15:41:40;13.57;;;11.00;;
48588;SDS011;34369;51.174;6.738;2022-08-03T15:44:15;12.90;;;10.25;;
48588;SDS011;34369;51.174;6.738;2022-08-03T15:46:50;11.70;;;10.52;;
48588;SDS011;34369;51.174;6.738;2022-08-03T15:49:23;11.23;;;10.13;;
48588;SDS011;34369;51.174;6.738;2022-08-03T15:51:57;11.07;;;9.98;;
48588;SDS011;34369;51.174;6.738;2022-08-03T15:54:30;11.47;;;10.37;;
48588;SDS011;34369;51.174;6.738;2022-08-03T15:57:03;10.70;;;9.57;;
48588;SDS011;34369;51.174;6.738;2022-08-03T15:59:35;11.88;;;10.68;;
48588;SDS011;34369;51.174;6.738;2022-08-03T16:02:07;13.73;;;10.88;;
48588;SDS011;34369;51.174;6.738;2022-08-03T16:04:40;11.32;;;9.77;;
48588;SDS011;34369;51.174;6.738;2022-08-03T16:07:14;10.90;;;9.70;;